Dilbeek, Belgium
Current Conditions -  °F | °C
As of 1:20 AM on Saturday 25 Oct 2014 (Local Time) from EBBR Reporting Station
Broken Clouds Broken Clouds  
Wind Chill: 52°   Ceiling: 1000
Heat Index: 52°   Visibility: 6mi
Dew Point: 50°   Wind: 13mph
Humidity: 94%   Direction: 210°SSW
Pressure: 30.03"   Gusts: NA
Location:  50.85°N, 4.26°E
Report Text: EBBR 242320Z 21011KT 9999 FEW006 BKN010 11/10 Q1017 RERA TEMPO 4000 RA
Loading
Personal Weather Stations






























Interactive Weather Map New forecast layout! Learn more

10-Day Weather Forecast

Advertisements
Track Severe Weather on mobile